sensor_id;sensor_type;location;lat;lon;timestamp;temperature;humidity
74359;DHT22;62792;46.236;6.040;2023-06-10T00:01:24;25.70;63.30
74359;DHT22;62792;46.236;6.040;2023-06-10T00:06:27;25.60;63.30
74359;DHT22;62792;46.236;6.040;2023-06-10T00:11:30;25.70;63.60
74359;DHT22;62792;46.236;6.040;2023-06-10T00:16:34;25.70;63.30
74359;DHT22;62792;46.236;6.040;2023-06-10T00:21:37;25.70;63.50
74359;DHT22;62792;46.236;6.040;2023-06-10T00:26:41;25.70;63.30
74359;DHT22;62792;46.236;6.040;2023-06-10T00:31:45;25.70;63.50
74359;DHT22;62792;46.236;6.040;2023-06-10T00:36:48;25.60;63.30
74359;DHT22;62792;46.236;6.040;2023-06-10T00:41:52;25.60;63.40
74359;DHT22;62792;46.236;6.040;2023-06-10T00:46:56;25.70;63.50
74359;DHT22;62792;46.236;6.040;2023-06-10T00:51:59;25.70;63.40
74359;DHT22;62792;46.236;6.040;2023-06-10T00:57:02;25.60;63.40
74359;DHT22;62792;46.236;6.040;2023-06-10T01:02:06;25.70;63.30
74359;DHT22;62792;46.236;6.040;2023-06-10T01:07:14;25.70;63.30
74359;DHT22;62792;46.236;6.040;2023-06-10T01:12:21;25.60;63.30
74359;DHT22;62792;46.236;6.040;2023-06-10T01:17:30;25.70;63.30
74359;DHT22;62792;46.236;6.040;2023-06-10T01:22:34;25.60;63.40
74359;DHT22;62792;46.236;6.040;2023-06-10T01:27:38;25.70;63.50
74359;DHT22;62792;46.236;6.040;2023-06-10T01:32:43;25.60;63.30
74359;DHT22;62792;46.236;6.040;2023-06-10T01:37:48;25.70;63.30
74359;DHT22;62792;46.236;6.040;2023-06-10T01:42:52;25.60;63.20
74359;DHT22;62792;46.236;6.040;2023-06-10T01:47:55;25.60;63.30
74359;DHT22;62792;46.236;6.040;2023-06-10T01:52:59;25.60;63.50
74359;DHT22;62792;46.236;6.040;2023-06-10T01:58:02;25.60;63.20
74359;DHT22;62792;46.236;6.040;2023-06-10T02:03:05;25.60;63.30
74359;DHT22;62792;46.236;6.040;2023-06-10T02:08:10;25.60;63.30
74359;DHT22;62792;46.236;6.040;2023-06-10T02:13:13;25.60;63.30
74359;DHT22;62792;46.236;6.040;2023-06-10T02:18:16;25.60;63.40
74359;DHT22;62792;46.236;6.040;2023-06-10T02:23:23;25.60;63.40
74359;DHT22;62792;46.236;6.040;2023-06-10T02:28:26;25.60;63.10
74359;DHT22;62792;46.236;6.040;2023-06-10T02:33:29;25.60;63.30
74359;DHT22;62792;46.236;6.040;2023-06-10T02:38:34;25.60;63.30
74359;DHT22;62792;46.236;6.040;2023-06-10T02:43:37;25.60;63.10
74359;DHT22;62792;46.236;6.040;2023-06-10T02:48:41;25.50;63.30
74359;DHT22;62792;46.236;6.040;2023-06-10T02:53:47;25.60;63.10
74359;DHT22;62792;46.236;6.040;2023-06-10T02:58:50;25.60;63.20
74359;DHT22;62792;46.236;6.040;2023-06-10T03:03:53;25.60;63.10
74359;DHT22;62792;46.236;6.040;2023-06-10T03:08:59;25.50;63.30
74359;DHT22;62792;46.236;6.040;2023-06-10T03:14:02;25.60;63.30
74359;DHT22;62792;46.236;6.040;2023-06-10T03:19:05;25.60;63.20
74359;DHT22;62792;46.236;6.040;2023-06-10T03:24:10;25.60;63.10
74359;DHT22;62792;46.236;6.040;2023-06-10T03:29:13;25.50;63.30
74359;DHT22;62792;46.236;6.040;2023-06-10T03:34:16;25.60;63.00
74359;DHT22;62792;46.236;6.040;2023-06-10T03:39:20;25.60;63.00
74359;DHT22;62792;46.236;6.040;2023-06-10T03:44:24;25.60;63.10
74359;DHT22;62792;46.236;6.040;2023-06-10T03:49:29;25.60;63.20
74359;DHT22;62792;46.236;6.040;2023-06-10T03:54:33;25.50;62.90
74359;DHT22;62792;46.236;6.040;2023-06-10T03:59:36;25.50;63.20
74359;DHT22;62792;46.236;6.040;2023-06-10T04:04:39;25.50;63.00
74359;DHT22;62792;46.236;6.040;2023-06-10T04:09:43;25.50;63.10
74359;DHT22;62792;46.236;6.040;2023-06-10T04:14:48;25.50;63.20
74359;DHT22;62792;46.236;6.040;2023-06-10T04:19:51;25.50;63.00
74359;DHT22;62792;46.236;6.040;2023-06-10T04:24:57;25.60;63.00
74359;DHT22;62792;46.236;6.040;2023-06-10T04:30:00;25.50;62.90
74359;DHT22;62792;46.236;6.040;2023-06-10T04:35:03;25.50;62.90
74359;DHT22;62792;46.236;6.040;2023-06-10T04:40:09;25.50;63.00
74359;DHT22;62792;46.236;6.040;2023-06-10T04:45:13;25.50;63.00
74359;DHT22;62792;46.236;6.040;2023-06-10T04:50:16;25.50;62.90
74359;DHT22;62792;46.236;6.040;2023-06-10T04:55:20;25.50;63.00
74359;DHT22;62792;46.236;6.040;2023-06-10T05:00:23;25.50;63.00
74359;DHT22;62792;46.236;6.040;2023-06-10T05:05:26;25.50;62.90
74359;DHT22;62792;46.236;6.040;2023-06-10T05:10:30;25.60;62.90
74359;DHT22;62792;46.236;6.040;2023-06-10T05:15:33;25.50;62.90
74359;DHT22;62792;46.236;6.040;2023-06-10T05:20:36;25.50;62.80
74359;DHT22;62792;46.236;6.040;2023-06-10T05:25:40;25.60;62.90
74359;DHT22;62792;46.236;6.040;2023-06-10T05:30:46;25.50;63.00
74359;DHT22;62792;46.236;6.040;2023-06-10T05:35:49;25.60;62.90
74359;DHT22;62792;46.236;6.040;2023-06-10T05:40:53;25.50;62.90
74359;DHT22;62792;46.236;6.040;2023-06-10T05:45:58;25.50;62.90
74359;DHT22;62792;46.236;6.040;2023-06-10T05:51:01;25.60;62.80
74359;DHT22;62792;46.236;6.040;2023-06-10T05:56:05;25.60;62.70
74359;DHT22;62792;46.236;6.040;2023-06-10T06:01:08;25.60;62.70
74359;DHT22;62792;46.236;6.040;2023-06-10T06:06:11;25.70;62.80
74359;DHT22;62792;46.236;6.040;2023-06-10T06:11:15;25.60;62.90
74359;DHT22;62792;46.236;6.040;2023-06-10T06:16:18;25.60;62.90
74359;DHT22;62792;46.236;6.040;2023-06-10T06:21:22;25.60;62.80
74359;DHT22;62792;46.236;6.040;2023-06-10T06:26:26;25.60;62.70
74359;DHT22;62792;46.236;6.040;2023-06-10T06:31:29;25.70;62.50
74359;DHT22;62792;46.236;6.040;2023-06-10T06:36:33;25.70;62.40
74359;DHT22;62792;46.236;6.040;2023-06-10T06:41:38;25.70;62.50
74359;DHT22;62792;46.236;6.040;2023-06-10T06:46:42;25.70;62.50
74359;DHT22;62792;46.236;6.040;2023-06-10T06:51:45;25.80;62.40
74359;DHT22;62792;46.236;6.040;2023-06-10T06:56:49;25.80;62.30
74359;DHT22;62792;46.236;6.040;2023-06-10T07:01:52;25.80;62.50
74359;DHT22;62792;46.236;6.040;2023-06-10T07:06:56;25.80;62.50
74359;DHT22;62792;46.236;6.040;2023-06-10T07:12:00;25.80;62.30
74359;DHT22;62792;46.236;6.040;2023-06-10T07:17:03;25.80;62.30
74359;DHT22;62792;46.236;6.040;2023-06-10T07:22:06;25.90;62.30
74359;DHT22;62792;46.236;6.040;2023-06-10T07:27:11;25.70;62.50
74359;DHT22;62792;46.236;6.040;2023-06-10T07:32:14;25.80;62.40
74359;DHT22;62792;46.236;6.040;2023-06-10T07:37:19;25.90;62.30
74359;DHT22;62792;46.236;6.040;2023-06-10T07:42:24;25.80;62.10
74359;DHT22;62792;46.236;6.040;2023-06-10T07:47:27;25.90;62.30
74359;DHT22;62792;46.236;6.040;2023-06-10T07:52:30;25.90;62.00
74359;DHT22;62792;46.236;6.040;2023-06-10T07:57:35;25.90;62.20
74359;DHT22;62792;46.236;6.040;2023-06-10T08:02:40;25.90;62.10
74359;DHT22;62792;46.236;6.040;2023-06-10T08:07:43;26.00;62.00
74359;DHT22;62792;46.236;6.040;2023-06-10T08:12:47;26.00;62.10
74359;DHT22;62792;46.236;6.040;2023-06-10T08:17:50;26.00;61.90
74359;DHT22;62792;46.236;6.040;2023-06-10T08:22:53;26.00;61.70
74359;DHT22;62792;46.236;6.040;2023-06-10T08:27:58;26.00;61.80
74359;DHT22;62792;46.236;6.040;2023-06-10T08:33:00;26.20;61.80
74359;DHT22;62792;46.236;6.040;2023-06-10T08:38:03;26.10;61.40
74359;DHT22;62792;46.236;6.040;2023-06-10T08:43:10;26.20;61.80
74359;DHT22;62792;46.236;6.040;2023-06-10T08:48:17;26.30;61.50
74359;DHT22;62792;46.236;6.040;2023-06-10T08:53:22;26.20;61.50
74359;DHT22;62792;46.236;6.040;2023-06-10T08:58:27;26.30;61.40
74359;DHT22;62792;46.236;6.040;2023-06-10T09:03:30;26.40;60.30
74359;DHT22;62792;46.236;6.040;2023-06-10T09:08:35;26.40;60.20
74359;DHT22;62792;46.236;6.040;2023-06-10T09:13:39;26.30;61.60
74359;DHT22;62792;46.236;6.040;2023-06-10T09:18:42;26.40;60.30
74359;DHT22;62792;46.236;6.040;2023-06-10T09:23:45;26.40;60.20
74359;DHT22;62792;46.236;6.040;2023-06-10T09:28:49;26.40;60.40
74359;DHT22;62792;46.236;6.040;2023-06-10T09:33:52;26.50;60.20
74359;DHT22;62792;46.236;6.040;2023-06-10T09:38:56;26.50;59.90
74359;DHT22;62792;46.236;6.040;2023-06-10T09:44:00;26.60;59.90
74359;DHT22;62792;46.236;6.040;2023-06-10T09:49:03;26.50;60.00
74359;DHT22;62792;46.236;6.040;2023-06-10T09:54:06;26.50;60.00
74359;DHT22;62792;46.236;6.040;2023-06-10T09:59:10;26.50;60.10
74359;DHT22;62792;46.236;6.040;2023-06-10T10:04:13;26.50;59.90
74359;DHT22;62792;46.236;6.040;2023-06-10T10:09:26;26.60;60.10
74359;DHT22;62792;46.236;6.040;2023-06-10T10:14:30;26.50;59.90
74359;DHT22;62792;46.236;6.040;2023-06-10T10:19:35;26.50;59.90
74359;DHT22;62792;46.236;6.040;2023-06-10T10:24:41;26.50;59.90
74359;DHT22;62792;46.236;6.040;2023-06-10T10:29:49;26.60;59.80
74359;DHT22;62792;46.236;6.040;2023-06-10T10:34:56;26.50;59.90
74359;DHT22;62792;46.236;6.040;2023-06-10T10:40:06;26.60;60.00
74359;DHT22;62792;46.236;6.040;2023-06-10T10:45:11;26.60;60.00
74359;DHT22;62792;46.236;6.040;2023-06-10T10:50:16;26.60;59.90
74359;DHT22;62792;46.236;6.040;2023-06-10T10:55:20;26.60;59.90
74359;DHT22;62792;46.236;6.040;2023-06-10T11:00:31;26.70;59.80
74359;DHT22;62792;46.236;6.040;2023-06-10T11:05:36;26.70;59.60
74359;DHT22;62792;46.236;6.040;2023-06-10T11:10:41;26.70;60.00
74359;DHT22;62792;46.236;6.040;2023-06-10T11:15:46;26.70;59.80
74359;DHT22;62792;46.236;6.040;2023-06-10T11:20:53;26.70;59.50
74359;DHT22;62792;46.236;6.040;2023-06-10T11:26:11;26.70;59.80
74359;DHT22;62792;46.236;6.040;2023-06-10T11:31:19;26.60;59.60
74359;DHT22;62792;46.236;6.040;2023-06-10T11:36:24;26.80;59.30
74359;DHT22;62792;46.236;6.040;2023-06-10T11:41:28;26.80;59.50
74359;DHT22;62792;46.236;6.040;2023-06-10T11:46:33;26.80;59.40
74359;DHT22;62792;46.236;6.040;2023-06-10T11:51:37;26.80;59.30
74359;DHT22;62792;46.236;6.040;2023-06-10T11:56:42;26.90;59.40
74359;DHT22;62792;46.236;6.040;2023-06-10T12:01:46;26.90;59.10
74359;DHT22;62792;46.236;6.040;2023-06-10T12:06:49;26.90;59.20
74359;DHT22;62792;46.236;6.040;2023-06-10T12:11:54;27.00;59.20
74359;DHT22;62792;46.236;6.040;2023-06-10T12:17:02;27.00;59.00
74359;DHT22;62792;46.236;6.040;2023-06-10T12:22:05;27.00;59.10
74359;DHT22;62792;46.236;6.040;2023-06-10T12:27:10;27.00;59.40
74359;DHT22;62792;46.236;6.040;2023-06-10T12:32:15;27.00;59.20
74359;DHT22;62792;46.236;6.040;2023-06-10T12:37:18;27.00;59.30
74359;DHT22;62792;46.236;6.040;2023-06-10T12:42:21;27.10;59.30
74359;DHT22;62792;46.236;6.040;2023-06-10T12:47:31;27.10;59.20
74359;DHT22;62792;46.236;6.040;2023-06-10T12:52:36;27.10;59.20
74359;DHT22;62792;46.236;6.040;2023-06-10T12:57:47;27.10;59.30
74359;DHT22;62792;46.236;6.040;2023-06-10T13:02:52;27.00;59.10
74359;DHT22;62792;46.236;6.040;2023-06-10T13:07:55;27.10;59.30
74359;DHT22;62792;46.236;6.040;2023-06-10T13:12:58;27.10;59.10
74359;DHT22;62792;46.236;6.040;2023-06-10T13:18:03;27.00;59.30
74359;DHT22;62792;46.236;6.040;2023-06-10T13:23:06;27.10;59.00
74359;DHT22;62792;46.236;6.040;2023-06-10T13:28:09;27.20;58.90
74359;DHT22;62792;46.236;6.040;2023-06-10T13:33:14;27.20;58.90
74359;DHT22;62792;46.236;6.040;2023-06-10T13:38:17;27.30;58.70
74359;DHT22;62792;46.236;6.040;2023-06-10T13:43:20;27.30;58.70
74359;DHT22;62792;46.236;6.040;2023-06-10T13:48:24;27.40;58.60
74359;DHT22;62792;46.236;6.040;2023-06-10T13:53:27;27.40;58.40
74359;DHT22;62792;46.236;6.040;2023-06-10T13:58:30;27.60;58.20
74359;DHT22;62792;46.236;6.040;2023-06-10T14:03:35;27.70;58.30
74359;DHT22;62792;46.236;6.040;2023-06-10T14:08:38;27.70;58.10
74359;DHT22;62792;46.236;6.040;2023-06-10T14:13:42;27.80;57.90
74359;DHT22;62792;46.236;6.040;2023-06-10T14:18:46;27.90;57.70
74359;DHT22;62792;46.236;6.040;2023-06-10T14:23:49;28.10;57.60
74359;DHT22;62792;46.236;6.040;2023-06-10T14:28:54;28.20;57.20
74359;DHT22;62792;46.236;6.040;2023-06-10T14:33:58;28.30;57.30
74359;DHT22;62792;46.236;6.040;2023-06-10T14:39:01;28.50;56.80
74359;DHT22;62792;46.236;6.040;2023-06-10T14:44:04;28.90;56.40
74359;DHT22;62792;46.236;6.040;2023-06-10T14:49:08;29.10;55.80
74359;DHT22;62792;46.236;6.040;2023-06-10T14:54:12;30.10;53.40
74359;DHT22;62792;46.236;6.040;2023-06-10T14:59:15;32.30;49.80
74359;DHT22;62792;46.236;6.040;2023-06-10T15:04:19;33.50;47.70
74359;DHT22;62792;46.236;6.040;2023-06-10T15:09:25;34.10;47.00
74359;DHT22;62792;46.236;6.040;2023-06-10T15:14:28;33.60;47.20
74359;DHT22;62792;46.236;6.040;2023-06-10T15:19:32;30.80;51.60
74359;DHT22;62792;46.236;6.040;2023-06-10T15:24:35;29.70;53.50
74359;DHT22;62792;46.236;6.040;2023-06-10T15:29:38;29.20;54.40
74359;DHT22;62792;46.236;6.040;2023-06-10T15:34:42;29.20;54.50
74359;DHT22;62792;46.236;6.040;2023-06-10T15:39:45;29.50;53.80
74359;DHT22;62792;46.236;6.040;2023-06-10T15:44:47;29.10;54.50
74359;DHT22;62792;46.236;6.040;2023-06-10T15:49:52;29.10;54.60
74359;DHT22;62792;46.236;6.040;2023-06-10T15:54:55;29.10;54.70
74359;DHT22;62792;46.236;6.040;2023-06-10T15:59:58;29.70;53.70
74359;DHT22;62792;46.236;6.040;2023-06-10T16:05:03;30.60;52.20
74359;DHT22;62792;46.236;6.040;2023-06-10T16:10:07;30.80;52.00
74359;DHT22;62792;46.236;6.040;2023-06-10T16:15:11;31.10;51.40
74359;DHT22;62792;46.236;6.040;2023-06-10T16:20:16;30.00;52.90
74359;DHT22;62792;46.236;6.040;2023-06-10T16:25:19;29.40;53.90
74359;DHT22;62792;46.236;6.040;2023-06-10T16:30:23;29.30;54.30
74359;DHT22;62792;46.236;6.040;2023-06-10T16:35:29;29.20;54.30
74359;DHT22;62792;46.236;6.040;2023-06-10T16:40:32;29.50;54.00
74359;DHT22;62792;46.236;6.040;2023-06-10T16:45:34;29.40;54.10
74359;DHT22;62792;46.236;6.040;2023-06-10T16:50:39;29.10;54.40
74359;DHT22;62792;46.236;6.040;2023-06-10T16:55:42;29.40;54.30
74359;DHT22;62792;46.236;6.040;2023-06-10T17:00:45;31.00;51.80
74359;DHT22;62792;46.236;6.040;2023-06-10T17:05:49;30.90;51.60
74359;DHT22;62792;46.236;6.040;2023-06-10T17:10:52;30.20;52.70
74359;DHT22;62792;46.236;6.040;2023-06-10T17:15:55;29.60;53.80
74359;DHT22;62792;46.236;6.040;2023-06-10T17:21:00;29.30;54.50
74359;DHT22;62792;46.236;6.040;2023-06-10T17:26:02;29.10;55.70
74359;DHT22;62792;46.236;6.040;2023-06-10T17:31:05;28.90;56.00
74359;DHT22;62792;46.236;6.040;2023-06-10T17:36:10;28.90;56.20
74359;DHT22;62792;46.236;6.040;2023-06-10T17:41:12;29.10;55.10
74359;DHT22;62792;46.236;6.040;2023-06-10T17:46:15;29.10;55.00
74359;DHT22;62792;46.236;6.040;2023-06-10T17:51:20;29.10;55.20
74359;DHT22;62792;46.236;6.040;2023-06-10T17:56:23;29.10;55.40
74359;DHT22;62792;46.236;6.040;2023-06-10T18:01:27;29.20;55.20
74359;DHT22;62792;46.236;6.040;2023-06-10T18:06:31;29.20;55.10
74359;DHT22;62792;46.236;6.040;2023-06-10T18:11:34;29.30;55.20
74359;DHT22;62792;46.236;6.040;2023-06-10T18:16:37;29.30;55.30
74359;DHT22;62792;46.236;6.040;2023-06-10T18:21:41;29.20;55.60
74359;DHT22;62792;46.236;6.040;2023-06-10T18:26:44;29.20;55.70
74359;DHT22;62792;46.236;6.040;2023-06-10T18:31:47;29.10;56.80
74359;DHT22;62792;46.236;6.040;2023-06-10T18:36:51;29.00;56.90
74359;DHT22;62792;46.236;6.040;2023-06-10T18:41:54;28.90;57.00
74359;DHT22;62792;46.236;6.040;2023-06-10T18:46:57;28.80;57.30
74359;DHT22;62792;46.236;6.040;2023-06-10T18:52:01;28.60;57.40
74359;DHT22;62792;46.236;6.040;2023-06-10T18:57:05;28.60;57.70
74359;DHT22;62792;46.236;6.040;2023-06-10T19:02:08;28.50;57.90
74359;DHT22;62792;46.236;6.040;2023-06-10T19:07:13;28.50;57.90
74359;DHT22;62792;46.236;6.040;2023-06-10T19:12:18;28.40;58.20
74359;DHT22;62792;46.236;6.040;2023-06-10T19:17:24;28.30;58.30
74359;DHT22;62792;46.236;6.040;2023-06-10T19:22:28;28.20;58.70
74359;DHT22;62792;46.236;6.040;2023-06-10T19:27:32;28.20;58.50
74359;DHT22;62792;46.236;6.040;2023-06-10T19:32:35;28.10;58.70
74359;DHT22;62792;46.236;6.040;2023-06-10T19:37:39;28.00;58.80
74359;DHT22;62792;46.236;6.040;2023-06-10T19:42:42;28.00;58.80
74359;DHT22;62792;46.236;6.040;2023-06-10T19:47:45;28.00;58.80
74359;DHT22;62792;46.236;6.040;2023-06-10T19:52:49;27.90;59.10
74359;DHT22;62792;46.236;6.040;2023-06-10T19:57:52;28.00;59.00
74359;DHT22;62792;46.236;6.040;2023-06-10T20:02:56;27.80;59.50
74359;DHT22;62792;46.236;6.040;2023-06-10T20:08:01;27.80;59.50
74359;DHT22;62792;46.236;6.040;2023-06-10T20:13:03;27.80;59.20
74359;DHT22;62792;46.236;6.040;2023-06-10T20:18:06;27.70;59.40
74359;DHT22;62792;46.236;6.040;2023-06-10T20:23:11;27.80;59.60
74359;DHT22;62792;46.236;6.040;2023-06-10T20:28:14;27.60;59.80
74359;DHT22;62792;46.236;6.040;2023-06-10T20:33:18;27.60;59.70
74359;DHT22;62792;46.236;6.040;2023-06-10T20:38:22;27.60;60.20
74359;DHT22;62792;46.236;6.040;2023-06-10T20:43:25;27.60;60.10
74359;DHT22;62792;46.236;6.040;2023-06-10T20:48:28;27.50;60.40
74359;DHT22;62792;46.236;6.040;2023-06-10T20:53:33;27.50;60.30
74359;DHT22;62792;46.236;6.040;2023-06-10T20:58:36;27.40;59.80
74359;DHT22;62792;46.236;6.040;2023-06-10T21:03:39;27.40;60.30
74359;DHT22;62792;46.236;6.040;2023-06-10T21:08:43;27.40;60.20
74359;DHT22;62792;46.236;6.040;2023-06-10T21:13:46;27.40;60.50
74359;DHT22;62792;46.236;6.040;2023-06-10T21:18:49;27.40;60.50
74359;DHT22;62792;46.236;6.040;2023-06-10T21:23:53;27.40;60.50
74359;DHT22;62792;46.236;6.040;2023-06-10T21:28:56;27.30;60.80
74359;DHT22;62792;46.236;6.040;2023-06-10T21:33:59;27.30;60.50
74359;DHT22;62792;46.236;6.040;2023-06-10T21:39:04;27.20;60.60
74359;DHT22;62792;46.236;6.040;2023-06-10T21:44:07;27.30;60.60
74359;DHT22;62792;46.236;6.040;2023-06-10T21:49:10;27.30;60.80
74359;DHT22;62792;46.236;6.040;2023-06-10T21:54:14;27.30;60.80
74359;DHT22;62792;46.236;6.040;2023-06-10T21:59:18;27.20;60.70
74359;DHT22;62792;46.236;6.040;2023-06-10T22:04:23;27.20;61.00
74359;DHT22;62792;46.236;6.040;2023-06-10T22:09:27;27.20;60.90
74359;DHT22;62792;46.236;6.040;2023-06-10T22:14:30;27.20;60.70
74359;DHT22;62792;46.236;6.040;2023-06-10T22:19:33;27.10;60.80
74359;DHT22;62792;46.236;6.040;2023-06-10T22:24:41;27.20;60.90
74359;DHT22;62792;46.236;6.040;2023-06-10T22:29:44;27.10;60.70
74359;DHT22;62792;46.236;6.040;2023-06-10T22:34:46;27.10;60.90
74359;DHT22;62792;46.236;6.040;2023-06-10T22:39:51;27.20;61.10
74359;DHT22;62792;46.236;6.040;2023-06-10T22:44:54;27.00;61.10
74359;DHT22;62792;46.236;6.040;2023-06-10T22:49:57;27.20;61.20
74359;DHT22;62792;46.236;6.040;2023-06-10T22:55:01;27.10;61.00
74359;DHT22;62792;46.236;6.040;2023-06-10T23:00:06;27.10;61.00
74359;DHT22;62792;46.236;6.040;2023-06-10T23:05:10;27.10;60.90
74359;DHT22;62792;46.236;6.040;2023-06-10T23:10:14;27.00;61.00
74359;DHT22;62792;46.236;6.040;2023-06-10T23:15:17;27.10;61.10
74359;DHT22;62792;46.236;6.040;2023-06-10T23:20:20;27.00;61.10
74359;DHT22;62792;46.236;6.040;2023-06-10T23:25:25;27.00;61.30
74359;DHT22;62792;46.236;6.040;2023-06-10T23:30:29;27.00;61.10
74359;DHT22;62792;46.236;6.040;2023-06-10T23:35:33;27.00;61.20
74359;DHT22;62792;46.236;6.040;2023-06-10T23:40:38;27.00;61.00
74359;DHT22;62792;46.236;6.040;2023-06-10T23:45:41;27.10;61.10
74359;DHT22;62792;46.236;6.040;2023-06-10T23:50:44;27.00;61.30
74359;DHT22;62792;46.236;6.040;2023-06-10T23:55:48;27.00;61.20
